sensor_id;sensor_type;location;lat;lon;timestamp;pressure;altitude;pressure_sealevel;temperature;humidity
17950;BME280;9100;48.700;9.316;2022-12-29T00:00:21;97356.6;;;7.83;100
17950;BME280;9100;48.700;9.316;2022-12-29T00:01:20;97353.2;;;7.83;100
17950;BME280;9100;48.700;9.316;2022-12-29T00:02:20;97353.2;;;7.83;100
17950;BME280;9100;48.700;9.316;2022-12-29T00:03:20;97347.2;;;7.84;100
17950;BME280;9100;48.700;9.316;2022-12-29T00:04:17;97354.8;;;7.84;100
17950;BME280;9100;48.700;9.316;2022-12-29T00:04:20;97351.5;;;7.83;100
17950;BME280;9100;48.700;9.316;2022-12-29T00:05:21;97350.40000000001;;;7.86;100
17950;BME280;9100;48.700;9.316;2022-12-29T00:06:21;97353.7;;;7.86;100
17950;BME280;9100;48.700;9.316;2022-12-29T00:07:20;97336.7;;;7.87;100
17950;BME280;9100;48.700;9.316;2022-12-29T00:08:21;97341.8;;;7.87;100
17950;BME280;9100;48.700;9.316;2022-12-29T00:09:17;97344.2;;;7.88;100
17950;BME280;9100;48.700;9.316;2022-12-29T00:09:21;97341.8;;;7.87;100
17950;BME280;9100;48.700;9.316;2022-12-29T00:10:21;97341.8;;;7.87;100
17950;BME280;9100;48.700;9.316;2022-12-29T00:11:21;97346.5;;;7.9;100
17950;BME280;9100;48.700;9.316;2022-12-29T00:12:21;97346.5;;;7.9;100
17950;BME280;9100;48.700;9.316;2022-12-29T00:13:20;97354;;;7.91;100
17950;BME280;9100;48.700;9.316;2022-12-29T00:14:17;97351.5;;;7.91;100
17950;BME280;9100;48.700;9.316;2022-12-29T00:14:20;97350.7;;;7.91;100
17950;BME280;9100;48.700;9.316;2022-12-29T00:15:20;97347.2;;;7.92;100
17950;BME280;9100;48.700;9.316;2022-12-29T00:16:21;97335;;;7.94;100
17950;BME280;9100;48.700;9.316;2022-12-29T00:17:21;97351;;;7.96;100
17950;BME280;9100;48.700;9.316;2022-12-29T00:18:23;97340.9;;;7.94;100
17950;BME280;9100;48.700;9.316;2022-12-29T00:19:17;97334.90000000001;;;7.95;100
17950;BME280;9100;48.700;9.316;2022-12-29T00:19:21;97346.5;;;7.98;100
17950;BME280;9100;48.700;9.316;2022-12-29T00:20:20;97339.59999999999;;;7.98;100
17950;BME280;9100;48.700;9.316;2022-12-29T00:21:21;97334.40000000001;;;8;100
17950;BME280;9100;48.700;9.316;2022-12-29T00:22:20;97338.5;;;8.01;100
17950;BME280;9100;48.700;9.316;2022-12-29T00:23:21;97335.90000000001;;;8.01;100
17950;BME280;9100;48.700;9.316;2022-12-29T00:24:17;97332.4;;;8.02;100
17950;BME280;9100;48.700;9.316;2022-12-29T00:24:21;97335;;;8.02;100
17950;BME280;9100;48.700;9.316;2022-12-29T00:25:21;97325.40000000001;;;8.04;100
17950;BME280;9100;48.700;9.316;2022-12-29T00:26:21;97326;;;8.06;100
17950;BME280;9100;48.700;9.316;2022-12-29T00:27:21;97327.59999999999;;;8.07;100
17950;BME280;9100;48.700;9.316;2022-12-29T00:28:21;97322.2;;;8.1;100
17950;BME280;9100;48.700;9.316;2022-12-29T00:29:17;97318.7;;;8.11;100
17950;BME280;9100;48.700;9.316;2022-12-29T00:29:21;97315.20000000001;;;8.12;100
17950;BME280;9100;48.700;9.316;2022-12-29T00:30:22;97312.5;;;8.13;100
17950;BME280;9100;48.700;9.316;2022-12-29T00:31:21;97317.2;;;8.16;100
17950;BME280;9100;48.700;9.316;2022-12-29T00:32:20;97321.2;;;8.19;100
17950;BME280;9100;48.700;9.316;2022-12-29T00:33:21;97308.4;;;8.19;100
17950;BME280;9100;48.700;9.316;2022-12-29T00:34:17;97307.5;;;8.2;100
17950;BME280;9100;48.700;9.316;2022-12-29T00:34:20;97314.3;;;8.19;100
17950;BME280;9100;48.700;9.316;2022-12-29T00:35:23;97311.8;;;8.19;100
17950;BME280;9100;48.700;9.316;2022-12-29T00:36:21;97311.6;;;8.21;100
17950;BME280;9100;48.700;9.316;2022-12-29T00:37:21;97312.40000000001;;;8.21;100
17950;BME280;9100;48.700;9.316;2022-12-29T00:38:21;97310.7;;;8.22;100
17950;BME280;9100;48.700;9.316;2022-12-29T00:39:17;97312.2;;;8.23;100
17950;BME280;9100;48.700;9.316;2022-12-29T00:39:21;97304.6;;;8.23;100
17950;BME280;9100;48.700;9.316;2022-12-29T00:40:20;97309.7;;;8.23;100
17950;BME280;9100;48.700;9.316;2022-12-29T00:41:21;97307.1;;;8.23;100
17950;BME280;9100;48.700;9.316;2022-12-29T00:42:21;97302.8;;;8.23;100
17950;BME280;9100;48.700;9.316;2022-12-29T00:43:21;97313.8;;;8.24;100
17950;BME280;9100;48.700;9.316;2022-12-29T00:44:17;97307.1;;;8.23;100
17950;BME280;9100;48.700;9.316;2022-12-29T00:44:21;97306.4;;;8.22;100
17950;BME280;9100;48.700;9.316;2022-12-29T00:45:21;97307.1;;;8.23;100
17950;BME280;9100;48.700;9.316;2022-12-29T00:46:21;97307.9;;;8.23;100
17950;BME280;9100;48.700;9.316;2022-12-29T00:47:21;97313.8;;;8.24;100
17950;BME280;9100;48.700;9.316;2022-12-29T00:48:21;97303.59999999999;;;8.24;100
17950;BME280;9100;48.700;9.316;2022-12-29T00:49:17;97248.2;;;7.89;100
17950;BME280;9100;48.700;9.316;2022-12-29T00:49:21;97297.7;;;8.23;100
17950;BME280;9100;48.700;9.316;2022-12-29T00:50:21;97313;;;8.23;100
17950;BME280;9100;48.700;9.316;2022-12-29T00:51:21;97305.2;;;8.25;100
17950;BME280;9100;48.700;9.316;2022-12-29T00:52:21;97306;;;8.25;100
17950;BME280;9100;48.700;9.316;2022-12-29T00:53:21;97309.3;;;8.26;100
17950;BME280;9100;48.700;9.316;2022-12-29T00:54:17;97310.1;;;8.26;100
17950;BME280;9100;48.700;9.316;2022-12-29T00:54:21;97313.5;;;8.27;100
17950;BME280;9100;48.700;9.316;2022-12-29T00:55:21;97303.3;;;8.27;100
17950;BME280;9100;48.700;9.316;2022-12-29T00:56:21;97301.4;;;8.29;100
17950;BME280;9100;48.700;9.316;2022-12-29T00:57:21;97297.90000000001;;;8.3;100
17950;BME280;9100;48.700;9.316;2022-12-29T00:58:21;97313.9;;;8.31;100
17950;BME280;9100;48.700;9.316;2022-12-29T00:59:17;97307.1;;;8.31;100
17950;BME280;9100;48.700;9.316;2022-12-29T00:59:21;97312.2;;;8.31;100
17950;BME280;9100;48.700;9.316;2022-12-29T01:00:21;97312.8;;;8.33;100
17950;BME280;9100;48.700;9.316;2022-12-29T01:01:21;97309.5;;;8.33;100
17950;BME280;9100;48.700;9.316;2022-12-29T01:02:21;97309.3;;;8.34;100
17950;BME280;9100;48.700;9.316;2022-12-29T01:03:21;97302.59999999999;;;8.33;100
17950;BME280;9100;48.700;9.316;2022-12-29T01:04:17;97307.7;;;8.33;100
17950;BME280;9100;48.700;9.316;2022-12-29T01:04:21;97302.59999999999;;;8.33;100
17950;BME280;9100;48.700;9.316;2022-12-29T01:05:21;97308.3;;;8.35;100
17950;BME280;9100;48.700;9.316;2022-12-29T01:06:21;97307.5;;;8.35;100
17950;BME280;9100;48.700;9.316;2022-12-29T01:07:21;97311.5;;;8.37;100
17950;BME280;9100;48.700;9.316;2022-12-29T01:08:21;97313.3;;;8.37;100
17950;BME280;9100;48.700;9.316;2022-12-29T01:09:17;97308.2;;;8.37;100
17950;BME280;9100;48.700;9.316;2022-12-29T01:09:21;97308.2;;;8.37;100
17950;BME280;9100;48.700;9.316;2022-12-29T01:10:21;97303.09999999999;;;8.37;100
17950;BME280;9100;48.700;9.316;2022-12-29T01:11:21;97308.2;;;8.37;100
17950;BME280;9100;48.700;9.316;2022-12-29T01:12:21;97312.5;;;8.36;100
17950;BME280;9100;48.700;9.316;2022-12-29T01:13:21;97317.6;;;8.36;100
17950;BME280;9100;48.700;9.316;2022-12-29T01:14:17;97311.7;;;8.36;100
17950;BME280;9100;48.700;9.316;2022-12-29T01:14:21;97314.20000000001;;;8.36;100
17950;BME280;9100;48.700;9.316;2022-12-29T01:15:21;97307.4;;;8.36;100
17950;BME280;9100;48.700;9.316;2022-12-29T01:16:21;97311.7;;;8.36;100
17950;BME280;9100;48.700;9.316;2022-12-29T01:17:21;97315;;;8.36;100
17950;BME280;9100;48.700;9.316;2022-12-29T01:18:21;97309.90000000001;;;8.36;100
17950;BME280;9100;48.700;9.316;2022-12-29T01:19:17;97309.1;;;8.36;100
17950;BME280;9100;48.700;9.316;2022-12-29T01:19:21;97311.7;;;8.36;100
17950;BME280;9100;48.700;9.316;2022-12-29T01:20:21;97318.4;;;8.37;100
17950;BME280;9100;48.700;9.316;2022-12-29T01:21:21;97319.2;;;8.37;100
17950;BME280;9100;48.700;9.316;2022-12-29T01:22:21;97314.8;;;8.38;100
17950;BME280;9100;48.700;9.316;2022-12-29T01:23:21;97315;;;8.36;100
17950;BME280;9100;48.700;9.316;2022-12-29T01:24:17;97320.1;;;8.36;100
17950;BME280;9100;48.700;9.316;2022-12-29T01:24:21;97320.9;;;8.37;100
17950;BME280;9100;48.700;9.316;2022-12-29T01:25:21;97322.7;;;8.36;100
17950;BME280;9100;48.700;9.316;2022-12-29T01:26:21;97324.2;;;8.37;100
17950;BME280;9100;48.700;9.316;2022-12-29T01:27:21;97324.2;;;8.37;100
17950;BME280;9100;48.700;9.316;2022-12-29T01:28:21;97327.8;;;8.36;100
17950;BME280;9100;48.700;9.316;2022-12-29T01:29:17;97322.7;;;8.36;100
17950;BME280;9100;48.700;9.316;2022-12-29T01:29:21;97324.40000000001;;;8.36;100
17950;BME280;9100;48.700;9.316;2022-12-29T01:30:21;97323.5;;;8.37;100
17950;BME280;9100;48.700;9.316;2022-12-29T01:31:21;97322.7;;;8.36;100
17950;BME280;9100;48.700;9.316;2022-12-29T01:32:21;97322.7;;;8.36;100
17950;BME280;9100;48.700;9.316;2022-12-29T01:33:21;97324.2;;;8.37;100
17950;BME280;9100;48.700;9.316;2022-12-29T01:34:17;97327.8;;;8.36;100
17950;BME280;9100;48.700;9.316;2022-12-29T01:34:21;97320.1;;;8.36;100
17950;BME280;9100;48.700;9.316;2022-12-29T01:35:21;97326.8;;;8.37;100
17950;BME280;9100;48.700;9.316;2022-12-29T01:36:21;97319.2;;;8.37;100
17950;BME280;9100;48.700;9.316;2022-12-29T01:37:21;97317.6;;;8.36;100
17950;BME280;9100;48.700;9.316;2022-12-29T01:38:21;97324.2;;;8.37;100
17950;BME280;9100;48.700;9.316;2022-12-29T01:39:17;97324.2;;;8.37;100
17950;BME280;9100;48.700;9.316;2022-12-29T01:39:21;97320.1;;;8.36;100
17950;BME280;9100;48.700;9.316;2022-12-29T01:40:21;97321.90000000001;;;8.36;100
17950;BME280;9100;48.700;9.316;2022-12-29T01:41:21;97319.2;;;8.37;100
17950;BME280;9100;48.700;9.316;2022-12-29T01:42:22;97322.5;;;8.38;100
17950;BME280;9100;48.700;9.316;2022-12-29T01:43:21;97324.2;;;8.37;100
17950;BME280;9100;48.700;9.316;2022-12-29T01:44:50;97326;;;8.37;100
17950;BME280;9100;48.700;9.316;2022-12-29T01:44:54;97324.2;;;8.37;100
17950;BME280;9100;48.700;9.316;2022-12-29T01:45:21;97323.5;;;8.37;100
17950;BME280;9100;48.700;9.316;2022-12-29T01:46:22;97326.8;;;8.37;100
17950;BME280;9100;48.700;9.316;2022-12-29T01:47:24;97319.9;;;8.38;100
17950;BME280;9100;48.700;9.316;2022-12-29T01:48:21;97327.59999999999;;;8.38;100
17950;BME280;9100;48.700;9.316;2022-12-29T01:49:18;97327.59999999999;;;8.38;100
17950;BME280;9100;48.700;9.316;2022-12-29T01:49:21;97319.9;;;8.38;100
17950;BME280;9100;48.700;9.316;2022-12-29T01:50:22;97324.90000000001;;;8.39;100
17950;BME280;9100;48.700;9.316;2022-12-29T01:51:21;97321.5;;;8.39;100
17950;BME280;9100;48.700;9.316;2022-12-29T01:52:21;97322.29999999999;;;8.39;100
17950;BME280;9100;48.700;9.316;2022-12-29T01:53:22;97326.4;;;8.4;100
17950;BME280;9100;48.700;9.316;2022-12-29T01:54:17;97323.29999999999;;;8.38;100
17950;BME280;9100;48.700;9.316;2022-12-29T01:54:22;97320.7;;;8.38;100
17950;BME280;9100;48.700;9.316;2022-12-29T01:55:21;97322.29999999999;;;8.39;100
17950;BME280;9100;48.700;9.316;2022-12-29T01:56:21;97270.5;;;8.09;100
17950;BME280;9100;48.700;9.316;2022-12-29T01:57:21;97321.40000000001;;;8.4;100
17950;BME280;9100;48.700;9.316;2022-12-29T01:58:21;97311.8;;;8.42;100
17950;BME280;9100;48.700;9.316;2022-12-29T01:59:18;97316.9;;;8.42;100
17950;BME280;9100;48.700;9.316;2022-12-29T01:59:22;97321;;;8.43;100
17950;BME280;9100;48.700;9.316;2022-12-29T02:00:21;97310.79999999999;;;8.43;100
17950;BME280;9100;48.700;9.316;2022-12-29T02:01:21;97314.20000000001;;;8.44;100
17950;BME280;9100;48.700;9.316;2022-12-29T02:02:21;97316.5;;;8.45;100
17950;BME280;9100;48.700;9.316;2022-12-29T02:03:21;97319.7;;;8.47;100
17950;BME280;9100;48.700;9.316;2022-12-29T02:04:17;97314.59999999999;;;8.47;100
17950;BME280;9100;48.700;9.316;2022-12-29T02:04:21;97319.7;;;8.47;100
17950;BME280;9100;48.700;9.316;2022-12-29T02:05:23;97316.2;;;8.48;100
17950;BME280;9100;48.700;9.316;2022-12-29T02:06:21;97314.20000000001;;;8.5;100
17950;BME280;9100;48.700;9.316;2022-12-29T02:07:21;97317.4;;;8.52;100
17950;BME280;9100;48.700;9.316;2022-12-29T02:08:21;97316.6;;;8.52;100
17950;BME280;9100;48.700;9.316;2022-12-29T02:09:17;97318.2;;;8.53;100
17950;BME280;9100;48.700;9.316;2022-12-29T02:09:21;97318.2;;;8.53;100
17950;BME280;9100;48.700;9.316;2022-12-29T02:10:21;97310.40000000001;;;8.54;100
17950;BME280;9100;48.700;9.316;2022-12-29T02:11:21;97298.7;;;8.45;100
17950;BME280;9100;48.700;9.316;2022-12-29T02:12:21;97306.9;;;8.55;100
17950;BME280;9100;48.700;9.316;2022-12-29T02:13:23;97312.59999999999;;;8.57;100
17950;BME280;9100;48.700;9.316;2022-12-29T02:14:17;97313.2;;;8.59;100
17950;BME280;9100;48.700;9.316;2022-12-29T02:14:21;97311.6;;;8.58;100
17950;BME280;9100;48.700;9.316;2022-12-29T02:15:21;97315.8;;;8.59;100
17950;BME280;9100;48.700;9.316;2022-12-29T02:16:26;97306.2;;;8.61;100
17950;BME280;9100;48.700;9.316;2022-12-29T02:17:22;97304.3;;;8.63;100
17950;BME280;9100;48.700;9.316;2022-12-29T02:18:24;97306.6;;;8.65;100
17950;BME280;9100;48.700;9.316;2022-12-29T02:19:24;97304.9;;;8.65;100
17950;BME280;9100;48.700;9.316;2022-12-29T02:19:58;97303.9;;;8.66;100
17950;BME280;9100;48.700;9.316;2022-12-29T02:21:27;97308.6;;;8.69;100
17950;BME280;9100;48.700;9.316;2022-12-29T02:22:23;97305.1;;;8.7;100
17950;BME280;9100;48.700;9.316;2022-12-29T02:23:29;97300.8;;;8.71;100
17950;BME280;9100;48.700;9.316;2022-12-29T02:24:36;97299.7;;;8.73;100
17950;BME280;9100;48.700;9.316;2022-12-29T02:24:42;97303.2;;;8.72;100
17950;BME280;9100;48.700;9.316;2022-12-29T02:25:27;97305.6;;;8.74;100
17950;BME280;9100;48.700;9.316;2022-12-29T02:26:27;97300.3;;;8.75;100
17950;BME280;9100;48.700;9.316;2022-12-29T02:27:25;97294.2;;;8.76;100
17950;BME280;9100;48.700;9.316;2022-12-29T02:28:26;97296.40000000001;;;8.8;100
17950;BME280;9100;48.700;9.316;2022-12-29T02:29:23;97293.9;;;8.8;100
17950;BME280;9100;48.700;9.316;2022-12-29T02:29:27;97295.5;;;8.81;100
17950;BME280;9100;48.700;9.316;2022-12-29T02:30:31;97292;;;8.82;100
17950;BME280;9100;48.700;9.316;2022-12-29T02:31:21;97295.9;;;8.84;100
17950;BME280;9100;48.700;9.316;2022-12-29T02:32:21;97293;;;8.87;100
17950;BME280;9100;48.700;9.316;2022-12-29T02:33:23;97290.3;;;8.89;100
17950;BME280;9100;48.700;9.316;2022-12-29T02:34:19;97285;;;8.9;100
17950;BME280;9100;48.700;9.316;2022-12-29T02:34:22;97291.8;;;8.9;100
17950;BME280;9100;48.700;9.316;2022-12-29T02:35:23;97290.5;;;8.94;100
17950;BME280;9100;48.700;9.316;2022-12-29T02:36:22;97290.20000000001;;;8.97;100
17950;BME280;9100;48.700;9.316;2022-12-29T02:37:22;97291;;;8.97;100
17950;BME280;9100;48.700;9.316;2022-12-29T02:38:25;97291.4;;;9.01;100
17950;BME280;9100;48.700;9.316;2022-12-29T02:39:20;97293.6;;;9.04;100
17950;BME280;9100;48.700;9.316;2022-12-29T02:39:21;97291.09999999999;;;9.04;100
17950;BME280;9100;48.700;9.316;2022-12-29T02:40:22;97283.1;;;9.07;100
17950;BME280;9100;48.700;9.316;2022-12-29T02:41:21;97295.5;;;9.1;100
17950;BME280;9100;48.700;9.316;2022-12-29T02:42:22;97287.40000000001;;;9.13;100
17950;BME280;9100;48.700;9.316;2022-12-29T02:43:23;97293.2;;;9.15;100
17950;BME280;9100;48.700;9.316;2022-12-29T02:44:20;97288.7;;;9.17;100
17950;BME280;9100;48.700;9.316;2022-12-29T02:44:22;97283.6;;;9.17;100
17950;BME280;9100;48.700;9.316;2022-12-29T02:45:21;97293.4;;;9.2;100
17950;BME280;9100;48.700;9.316;2022-12-29T02:46:21;97285.40000000001;;;9.23;100
17950;BME280;9100;48.700;9.316;2022-12-29T02:47:22;97291.7;;;9.27;100
17950;BME280;9100;48.700;9.316;2022-12-29T02:48:23;97289.8;;;9.29;100
17950;BME280;9100;48.700;9.316;2022-12-29T02:49:18;97283.5;;;9.32;100
17950;BME280;9100;48.700;9.316;2022-12-29T02:49:22;97283.5;;;9.32;100
17950;BME280;9100;48.700;9.316;2022-12-29T02:50:23;97288.3;;;9.35;100
17950;BME280;9100;48.700;9.316;2022-12-29T02:51:23;97283.6;;;9.38;100
17950;BME280;9100;48.700;9.316;2022-12-29T02:52:22;97284;;;9.42;100
17950;BME280;9100;48.700;9.316;2022-12-29T02:53:21;97288;;;9.44;100
17950;BME280;9100;48.700;9.316;2022-12-29T02:54:17;97285.1;;;9.47;100
17950;BME280;9100;48.700;9.316;2022-12-29T02:54:21;97283.3;;;9.48;100
17950;BME280;9100;48.700;9.316;2022-12-29T02:55:21;97281.6;;;9.48;100
17950;BME280;9100;48.700;9.316;2022-12-29T02:56:21;97269.4;;;9.5;100
17950;BME280;9100;48.700;9.316;2022-12-29T02:57:29;97275.09999999999;;;9.52;100
17950;BME280;9100;48.700;9.316;2022-12-29T02:58:22;97275.7;;;9.54;100
17950;BME280;9100;48.700;9.316;2022-12-29T02:59:17;97275.2;;;9.59;100
17950;BME280;9100;48.700;9.316;2022-12-29T02:59:21;97276;;;9.59;100
17950;BME280;9100;48.700;9.316;2022-12-29T03:00:21;97275.59999999999;;;9.62;100
17950;BME280;9100;48.700;9.316;2022-12-29T03:01:23;97281.3;;;9.64;100
17950;BME280;9100;48.700;9.316;2022-12-29T03:02:26;97279.2;;;9.68;100
17950;BME280;9100;48.700;9.316;2022-12-29T03:03:23;97282.4;;;9.7;100
17950;BME280;9100;48.700;9.316;2022-12-29T03:04:20;97274.5;;;9.71;100
17950;BME280;9100;48.700;9.316;2022-12-29T03:04:23;97282.2;;;9.71;100
17950;BME280;9100;48.700;9.316;2022-12-29T03:05:26;97286.90000000001;;;9.74;100
17950;BME280;9100;48.700;9.316;2022-12-29T03:06:24;97291.09999999999;;;9.75;100
17950;BME280;9100;48.700;9.316;2022-12-29T03:07:22;97286.6;;;9.78;100
17950;BME280;9100;48.700;9.316;2022-12-29T03:08:23;97295.8;;;9.79;100
17950;BME280;9100;48.700;9.316;2022-12-29T03:09:19;97291.5;;;9.79;100
17950;BME280;9100;48.700;9.316;2022-12-29T03:09:25;97293.1;;;9.8;100
17950;BME280;9100;48.700;9.316;2022-12-29T03:10:25;97292.1;;;9.81;100
17950;BME280;9100;48.700;9.316;2022-12-29T03:11:21;97293.9;;;9.81;100
17950;BME280;9100;48.700;9.316;2022-12-29T03:12:23;97287.59999999999;;;9.83;100
17950;BME280;9100;48.700;9.316;2022-12-29T03:13:22;97288.4;;;9.84;100
17950;BME280;9100;48.700;9.316;2022-12-29T03:14:17;97283.7;;;9.87;100
17950;BME280;9100;48.700;9.316;2022-12-29T03:14:23;97288.8;;;9.87;100
17950;BME280;9100;48.700;9.316;2022-12-29T03:15:21;97286.90000000001;;;9.89;100
17950;BME280;9100;48.700;9.316;2022-12-29T03:16:21;97284.1;;;9.91;100
17950;BME280;9100;48.700;9.316;2022-12-29T03:17:23;97286.1;;;9.95;100
17950;BME280;9100;48.700;9.316;2022-12-29T03:18:21;97286.1;;;9.95;100
17950;BME280;9100;48.700;9.316;2022-12-29T03:19:19;97286.6;;;9.99;100
17950;BME280;9100;48.700;9.316;2022-12-29T03:19:21;97285;;;9.98;100
17950;BME280;9100;48.700;9.316;2022-12-29T03:20:23;97279.5;;;10.01;100
17950;BME280;9100;48.700;9.316;2022-12-29T03:21:22;97179.9;;;9.45;100
17950;BME280;9100;48.700;9.316;2022-12-29T03:22:21;97283.90000000001;;;10.07;100
17950;BME280;9100;48.700;9.316;2022-12-29T03:23:21;97276;;;10.08;100
17950;BME280;9100;48.700;9.316;2022-12-29T03:24:17;97276.8;;;10.09;100
17950;BME280;9100;48.700;9.316;2022-12-29T03:24:22;97278.4;;;10.1;100
17950;BME280;9100;48.700;9.316;2022-12-29T03:25:22;97272.1;;;10.12;100
17950;BME280;9100;48.700;9.316;2022-12-29T03:26:21;97269.4;;;10.14;100
17950;BME280;9100;48.700;9.316;2022-12-29T03:27:22;97264.9;;;10.16;100
17950;BME280;9100;48.700;9.316;2022-12-29T03:28:22;97279.1;;;10.18;100
17950;BME280;9100;48.700;9.316;2022-12-29T03:29:17;97280.9;;;10.18;100
17950;BME280;9100;48.700;9.316;2022-12-29T03:29:21;97272.2;;;10.19;100
17950;BME280;9100;48.700;9.316;2022-12-29T03:30:21;97266.3;;;10.18;100
17950;BME280;9100;48.700;9.316;2022-12-29T03:31:21;97272.7;;;10.23;100
17950;BME280;9100;48.700;9.316;2022-12-29T03:32:21;97277.8;;;10.23;100
17950;BME280;9100;48.700;9.316;2022-12-29T03:33:22;97271.7;;;10.23;100
17950;BME280;9100;48.700;9.316;2022-12-29T03:34:17;97267.3;;;10.24;100
17950;BME280;9100;48.700;9.316;2022-12-29T03:34:21;97268.3;;;10.23;100
17950;BME280;9100;48.700;9.316;2022-12-29T03:35:22;97266.4;;;10.25;100
17950;BME280;9100;48.700;9.316;2022-12-29T03:36:23;97266.4;;;10.25;100
17950;BME280;9100;48.700;9.316;2022-12-29T03:37:22;97267.3;;;10.24;100
17950;BME280;9100;48.700;9.316;2022-12-29T03:38:22;97271.5;;;10.25;100
17950;BME280;9100;48.700;9.316;2022-12-29T03:39:17;97263.59999999999;;;10.27;100
17950;BME280;9100;48.700;9.316;2022-12-29T03:39:22;97251;;;10.25;100
17950;BME280;9100;48.700;9.316;2022-12-29T03:40:21;97256.9;;;10.26;100
17950;BME280;9100;48.700;9.316;2022-12-29T03:41:22;97254.2;;;10.27;100
17950;BME280;9100;48.700;9.316;2022-12-29T03:42:21;97255;;;10.28;100
17950;BME280;9100;48.700;9.316;2022-12-29T03:43:21;97260.90000000001;;;10.28;100
17950;BME280;9100;48.700;9.316;2022-12-29T03:44:17;97260.90000000001;;;10.28;100
17950;BME280;9100;48.700;9.316;2022-12-29T03:44:21;97255.8;;;10.28;100
17950;BME280;9100;48.700;9.316;2022-12-29T03:45:21;97254.8;;;10.29;100
17950;BME280;9100;48.700;9.316;2022-12-29T03:46:21;97264.09999999999;;;10.3;100
17950;BME280;9100;48.700;9.316;2022-12-29T03:47:21;97265.59999999999;;;10.31;100
17950;BME280;9100;48.700;9.316;2022-12-29T03:48:21;97255.4;;;10.31;100
17950;BME280;9100;48.700;9.316;2022-12-29T03:49:17;97260.5;;;10.31;100
17950;BME280;9100;48.700;9.316;2022-12-29T03:49:21;97262.3;;;10.31;100
17950;BME280;9100;48.700;9.316;2022-12-29T03:50:21;97263.09999999999;;;10.31;100
17950;BME280;9100;48.700;9.316;2022-12-29T03:51:21;97262.09999999999;;;10.32;100
17950;BME280;9100;48.700;9.316;2022-12-29T03:52:21;97259.40000000001;;;10.34;100
17950;BME280;9100;48.700;9.316;2022-12-29T03:53:21;97260.2;;;10.34;100
17950;BME280;9100;48.700;9.316;2022-12-29T03:54:17;97256.8;;;10.34;100
17950;BME280;9100;48.700;9.316;2022-12-29T03:54:21;97259.40000000001;;;10.34;100
17950;BME280;9100;48.700;9.316;2022-12-29T03:55:21;97255;;;10.34;100
17950;BME280;9100;48.700;9.316;2022-12-29T03:56:21;97244.8;;;10.34;100
17950;BME280;9100;48.700;9.316;2022-12-29T03:57:21;97248.90000000001;;;10.35;100
17950;BME280;9100;48.700;9.316;2022-12-29T03:58:21;97248.29999999999;;;10.33;100
17950;BME280;9100;48.700;9.316;2022-12-29T03:59:17;97248.5;;;10.32;100
17950;BME280;9100;48.700;9.316;2022-12-29T03:59:21;97249.3;;;10.32;100
17950;BME280;9100;48.700;9.316;2022-12-29T04:00:21;97241.7;;;10.32;100
17950;BME280;9100;48.700;9.316;2022-12-29T04:01:21;97249.90000000001;;;10.34;100
17950;BME280;9100;48.700;9.316;2022-12-29T04:02:21;97250.9;;;10.33;100
17950;BME280;9100;48.700;9.316;2022-12-29T04:03:21;97254.4;;;10.32;100
17950;BME280;9100;48.700;9.316;2022-12-29T04:04:17;97256.2;;;10.32;100
17950;BME280;9100;48.700;9.316;2022-12-29T04:04:21;97257;;;10.32;100
17950;BME280;9100;48.700;9.316;2022-12-29T04:05:21;97251.9;;;10.32;100
17950;BME280;9100;48.700;9.316;2022-12-29T04:06:21;97252.8;;;10.31;100
17950;BME280;9100;48.700;9.316;2022-12-29T04:07:21;97256.2;;;10.32;100
17950;BME280;9100;48.700;9.316;2022-12-29T04:08:21;97253.59999999999;;;10.32;100
17950;BME280;9100;48.700;9.316;2022-12-29T04:09:17;97252.3;;;10.29;100
17950;BME280;9100;48.700;9.316;2022-12-29T04:09:21;97253.8;;;10.3;100
17950;BME280;9100;48.700;9.316;2022-12-29T04:10:21;97236.90000000001;;;10.23;100
17950;BME280;9100;48.700;9.316;2022-12-29T04:11:21;97252.3;;;10.29;100
17950;BME280;9100;48.700;9.316;2022-12-29T04:12:21;97257.4;;;10.29;100
17950;BME280;9100;48.700;9.316;2022-12-29T04:13:21;97255.8;;;10.28;100
17950;BME280;9100;48.700;9.316;2022-12-29T04:14:17;97259.3;;;10.27;100
17950;BME280;9100;48.700;9.316;2022-12-29T04:14:21;97257.7;;;10.26;100
17950;BME280;9100;48.700;9.316;2022-12-29T04:15:21;97257.7;;;10.26;100
17950;BME280;9100;48.700;9.316;2022-12-29T04:16:21;97263.59999999999;;;10.27;100
17950;BME280;9100;48.700;9.316;2022-12-29T04:17:21;97265.4;;;10.26;100
17950;BME280;9100;48.700;9.316;2022-12-29T04:18:21;97262.2;;;10.24;100
17950;BME280;9100;48.700;9.316;2022-12-29T04:19:17;97264;;;10.23;100
17950;BME280;9100;48.700;9.316;2022-12-29T04:19:21;97265.8;;;10.23;100
17950;BME280;9100;48.700;9.316;2022-12-29T04:20:21;97268.3;;;10.23;100
17950;BME280;9100;48.700;9.316;2022-12-29T04:21:21;97267.5;;;10.23;100
17950;BME280;9100;48.700;9.316;2022-12-29T04:22:21;97267.5;;;10.23;100
17950;BME280;9100;48.700;9.316;2022-12-29T04:23:21;97266;;;10.21;100
17950;BME280;9100;48.700;9.316;2022-12-29T04:24:17;97270.3;;;10.21;100
17950;BME280;9100;48.700;9.316;2022-12-29T04:24:21;97258.5;;;10.2;100
17950;BME280;9100;48.700;9.316;2022-12-29T04:25:21;97256.9;;;10.19;100
17950;BME280;9100;48.700;9.316;2022-12-29T04:26:21;97273;;;10.19;100
17950;BME280;9100;48.700;9.316;2022-12-29T04:27:21;97268.9;;;10.18;100
17950;BME280;9100;48.700;9.316;2022-12-29T04:28:21;97269.1;;;10.17;100
17950;BME280;9100;48.700;9.316;2022-12-29T04:29:17;97275.2;;;10.16;100
17950;BME280;9100;48.700;9.316;2022-12-29T04:29:21;97271;;;10.15;100
17950;BME280;9100;48.700;9.316;2022-12-29T04:30:21;97267.5;;;10.16;100
17950;BME280;9100;48.700;9.316;2022-12-29T04:31:21;97265.09999999999;;;10.14;100
17950;BME280;9100;48.700;9.316;2022-12-29T04:32:21;97271;;;10.15;100
17950;BME280;9100;48.700;9.316;2022-12-29T04:33:21;97272;;;10.14;100
17950;BME280;9100;48.700;9.316;2022-12-29T04:34:17;97272.90000000001;;;10.13;100
17950;BME280;9100;48.700;9.316;2022-12-29T04:34:21;97275.5;;;10.13;100
17950;BME280;9100;48.700;9.316;2022-12-29T04:35:21;97277.20000000001;;;10.12;100
17950;BME280;9100;48.700;9.316;2022-12-29T04:36:21;97278;;;10.13;100
17950;BME280;9100;48.700;9.316;2022-12-29T04:37:21;97279;;;10.12;100